sensor_id;sensor_type;location;lat;lon;timestamp;P1;durP1;ratioP1;P2;durP2;ratioP2
72284;SDS011;60220;53.552;10.092;2023-07-13T00:00:46;2.63;;;2.25;;
72284;SDS011;60220;53.552;10.092;2023-07-13T00:03:12;3.83;;;2.15;;
72284;SDS011;60220;53.552;10.092;2023-07-13T00:05:40;2.75;;;2.25;;
72284;SDS011;60220;53.552;10.092;2023-07-13T00:08:07;8.00;;;2.47;;
72284;SDS011;60220;53.552;10.092;2023-07-13T00:10:38;4.20;;;2.20;;
72284;SDS011;60220;53.552;10.092;2023-07-13T00:13:04;5.43;;;2.45;;
72284;SDS011;60220;53.552;10.092;2023-07-13T00:15:31;2.72;;;2.00;;
72284;SDS011;60220;53.552;10.092;2023-07-13T00:17:57;5.72;;;2.40;;
72284;SDS011;60220;53.552;10.092;2023-07-13T00:20:26;4.72;;;2.42;;
72284;SDS011;60220;53.552;10.092;2023-07-13T00:22:53;3.28;;;2.25;;
72284;SDS011;60220;53.552;10.092;2023-07-13T00:25:20;3.63;;;2.40;;
72284;SDS011;60220;53.552;10.092;2023-07-13T00:27:46;3.28;;;2.38;;
72284;SDS011;60220;53.552;10.092;2023-07-13T00:30:13;5.32;;;2.70;;
72284;SDS011;60220;53.552;10.092;2023-07-13T00:32:40;3.35;;;2.20;;
72284;SDS011;60220;53.552;10.092;2023-07-13T00:35:07;4.22;;;2.35;;
72284;SDS011;60220;53.552;10.092;2023-07-13T00:37:33;1.98;;;1.85;;
72284;SDS011;60220;53.552;10.092;2023-07-13T00:40:02;2.53;;;2.10;;
72284;SDS011;60220;53.552;10.092;2023-07-13T00:42:29;4.53;;;2.17;;
72284;SDS011;60220;53.552;10.092;2023-07-13T00:45:02;2.33;;;1.92;;
72284;SDS011;60220;53.552;10.092;2023-07-13T00:47:31;4.13;;;2.28;;
72284;SDS011;60220;53.552;10.092;2023-07-13T00:49:57;2.08;;;1.98;;
72284;SDS011;60220;53.552;10.092;2023-07-13T00:52:24;2.25;;;1.88;;
72284;SDS011;60220;53.552;10.092;2023-07-13T00:54:50;2.85;;;2.05;;
72284;SDS011;60220;53.552;10.092;2023-07-13T00:57:18;3.30;;;2.38;;
72284;SDS011;60220;53.552;10.092;2023-07-13T00:59:47;2.53;;;1.83;;
72284;SDS011;60220;53.552;10.092;2023-07-13T01:02:13;4.35;;;2.90;;
72284;SDS011;60220;53.552;10.092;2023-07-13T01:04:43;4.35;;;2.38;;
72284;SDS011;60220;53.552;10.092;2023-07-13T01:07:09;3.15;;;2.67;;
72284;SDS011;60220;53.552;10.092;2023-07-13T01:09:36;3.20;;;2.03;;
72284;SDS011;60220;53.552;10.092;2023-07-13T01:12:03;3.92;;;2.60;;
72284;SDS011;60220;53.552;10.092;2023-07-13T01:14:31;3.90;;;2.40;;
72284;SDS011;60220;53.552;10.092;2023-07-13T01:16:57;3.88;;;2.95;;
72284;SDS011;60220;53.552;10.092;2023-07-13T01:19:33;8.02;;;2.83;;
72284;SDS011;60220;53.552;10.092;2023-07-13T01:22:04;4.78;;;2.65;;
72284;SDS011;60220;53.552;10.092;2023-07-13T01:24:34;4.95;;;2.50;;
72284;SDS011;60220;53.552;10.092;2023-07-13T01:27:00;7.45;;;2.80;;
72284;SDS011;60220;53.552;10.092;2023-07-13T01:29:27;5.15;;;2.38;;
72284;SDS011;60220;53.552;10.092;2023-07-13T01:31:53;6.35;;;2.47;;
72284;SDS011;60220;53.552;10.092;2023-07-13T01:34:19;5.65;;;2.67;;
72284;SDS011;60220;53.552;10.092;2023-07-13T01:36:46;6.47;;;2.75;;
72284;SDS011;60220;53.552;10.092;2023-07-13T01:39:16;2.58;;;2.38;;
72284;SDS011;60220;53.552;10.092;2023-07-13T01:41:43;9.68;;;2.88;;
72284;SDS011;60220;53.552;10.092;2023-07-13T01:44:09;6.22;;;3.28;;
72284;SDS011;60220;53.552;10.092;2023-07-13T01:46:35;5.65;;;2.85;;
72284;SDS011;60220;53.552;10.092;2023-07-13T01:49:02;4.82;;;2.97;;
72284;SDS011;60220;53.552;10.092;2023-07-13T01:51:28;5.15;;;2.90;;
72284;SDS011;60220;53.552;10.092;2023-07-13T01:53:55;3.63;;;2.42;;
72284;SDS011;60220;53.552;10.092;2023-07-13T01:56:25;5.80;;;3.28;;
72284;SDS011;60220;53.552;10.092;2023-07-13T01:58:51;6.13;;;3.10;;
72284;SDS011;60220;53.552;10.092;2023-07-13T02:01:20;6.22;;;3.97;;
72284;SDS011;60220;53.552;10.092;2023-07-13T02:03:47;6.13;;;3.30;;
72284;SDS011;60220;53.552;10.092;2023-07-13T02:06:13;7.45;;;3.40;;
72284;SDS011;60220;53.552;10.092;2023-07-13T02:08:40;10.93;;;3.40;;
72284;SDS011;60220;53.552;10.092;2023-07-13T02:11:06;15.20;;;3.67;;
72284;SDS011;60220;53.552;10.092;2023-07-13T02:13:34;6.35;;;4.97;;
72284;SDS011;60220;53.552;10.092;2023-07-13T02:16:03;9.77;;;3.85;;
72284;SDS011;60220;53.552;10.092;2023-07-13T02:18:32;6.20;;;3.75;;
72284;SDS011;60220;53.552;10.092;2023-07-13T02:20:58;4.35;;;3.70;;
72284;SDS011;60220;53.552;10.092;2023-07-13T02:23:27;6.20;;;3.40;;
72284;SDS011;60220;53.552;10.092;2023-07-13T02:25:54;4.85;;;3.40;;
72284;SDS011;60220;53.552;10.092;2023-07-13T02:28:21;5.95;;;3.92;;
72284;SDS011;60220;53.552;10.092;2023-07-13T02:30:49;7.22;;;4.28;;
72284;SDS011;60220;53.552;10.092;2023-07-13T02:33:18;12.98;;;4.70;;
72284;SDS011;60220;53.552;10.092;2023-07-13T02:35:44;4.72;;;3.75;;
72284;SDS011;60220;53.552;10.092;2023-07-13T02:38:10;3.97;;;3.58;;
72284;SDS011;60220;53.552;10.092;2023-07-13T02:40:37;5.10;;;4.25;;
72284;SDS011;60220;53.552;10.092;2023-07-13T02:43:03;7.60;;;4.55;;
72284;SDS011;60220;53.552;10.092;2023-07-13T02:45:30;7.90;;;5.85;;
72284;SDS011;60220;53.552;10.092;2023-07-13T02:47:58;7.78;;;4.50;;
72284;SDS011;60220;53.552;10.092;2023-07-13T02:50:24;8.63;;;6.40;;
72284;SDS011;60220;53.552;10.092;2023-07-13T02:52:50;6.80;;;4.43;;
72284;SDS011;60220;53.552;10.092;2023-07-13T02:55:19;10.20;;;4.78;;
72284;SDS011;60220;53.552;10.092;2023-07-13T02:57:45;7.45;;;4.60;;
72284;SDS011;60220;53.552;10.092;2023-07-13T03:00:12;7.82;;;4.78;;
72284;SDS011;60220;53.552;10.092;2023-07-13T03:02:40;8.93;;;4.57;;
72284;SDS011;60220;53.552;10.092;2023-07-13T03:05:10;4.85;;;3.83;;
72284;SDS011;60220;53.552;10.092;2023-07-13T03:07:37;7.15;;;4.40;;
72284;SDS011;60220;53.552;10.092;2023-07-13T03:10:07;7.57;;;4.00;;
72284;SDS011;60220;53.552;10.092;2023-07-13T03:12:34;6.90;;;4.38;;
72284;SDS011;60220;53.552;10.092;2023-07-13T03:15:00;8.70;;;4.80;;
72284;SDS011;60220;53.552;10.092;2023-07-13T03:17:27;5.43;;;4.32;;
72284;SDS011;60220;53.552;10.092;2023-07-13T03:19:53;8.45;;;4.35;;
72284;SDS011;60220;53.552;10.092;2023-07-13T03:22:21;6.45;;;3.90;;
72284;SDS011;60220;53.552;10.092;2023-07-13T03:24:47;5.72;;;4.00;;
72284;SDS011;60220;53.552;10.092;2023-07-13T03:27:14;5.60;;;4.28;;
72284;SDS011;60220;53.552;10.092;2023-07-13T03:29:41;8.57;;;4.30;;
72284;SDS011;60220;53.552;10.092;2023-07-13T03:32:07;11.30;;;6.10;;
72284;SDS011;60220;53.552;10.092;2023-07-13T03:34:34;13.02;;;9.38;;
72284;SDS011;60220;53.552;10.092;2023-07-13T03:37:03;7.60;;;4.80;;
72284;SDS011;60220;53.552;10.092;2023-07-13T03:39:33;11.23;;;4.90;;
72284;SDS011;60220;53.552;10.092;2023-07-13T03:41:59;7.35;;;4.63;;
72284;SDS011;60220;53.552;10.092;2023-07-13T03:44:26;7.18;;;4.32;;
72284;SDS011;60220;53.552;10.092;2023-07-13T03:46:52;8.90;;;5.00;;
72284;SDS011;60220;53.552;10.092;2023-07-13T03:49:19;6.10;;;4.60;;
72284;SDS011;60220;53.552;10.092;2023-07-13T03:51:45;5.82;;;3.90;;
72284;SDS011;60220;53.552;10.092;2023-07-13T03:54:12;15.18;;;4.43;;
72284;SDS011;60220;53.552;10.092;2023-07-13T03:56:40;5.20;;;4.22;;
72284;SDS011;60220;53.552;10.092;2023-07-13T03:59:06;7.30;;;4.57;;
72284;SDS011;60220;53.552;10.092;2023-07-13T04:01:33;7.00;;;4.85;;
72284;SDS011;60220;53.552;10.092;2023-07-13T04:03:59;7.95;;;4.00;;
72284;SDS011;60220;53.552;10.092;2023-07-13T04:06:26;5.38;;;4.10;;
72284;SDS011;60220;53.552;10.092;2023-07-13T04:08:54;7.38;;;4.05;;
72284;SDS011;60220;53.552;10.092;2023-07-13T04:11:22;12.50;;;3.85;;
72284;SDS011;60220;53.552;10.092;2023-07-13T04:13:50;7.53;;;4.60;;
72284;SDS011;60220;53.552;10.092;2023-07-13T04:16:17;6.45;;;3.97;;
72284;SDS011;60220;53.552;10.092;2023-07-13T04:18:43;5.63;;;4.03;;
72284;SDS011;60220;53.552;10.092;2023-07-13T04:21:10;4.97;;;3.63;;
72284;SDS011;60220;53.552;10.092;2023-07-13T04:23:37;8.93;;;3.97;;
72284;SDS011;60220;53.552;10.092;2023-07-13T04:26:04;7.85;;;3.58;;
72284;SDS011;60220;53.552;10.092;2023-07-13T04:28:30;5.53;;;3.72;;
72284;SDS011;60220;53.552;10.092;2023-07-13T04:30:58;7.78;;;3.92;;
72284;SDS011;60220;53.552;10.092;2023-07-13T04:33:27;6.82;;;4.60;;
72284;SDS011;60220;53.552;10.092;2023-07-13T04:35:56;10.63;;;3.35;;
72284;SDS011;60220;53.552;10.092;2023-07-13T04:38:23;10.02;;;3.92;;
72284;SDS011;60220;53.552;10.092;2023-07-13T04:40:50;7.32;;;3.65;;
72284;SDS011;60220;53.552;10.092;2023-07-13T04:43:16;7.97;;;4.15;;
72284;SDS011;60220;53.552;10.092;2023-07-13T04:45:45;6.22;;;4.25;;
72284;SDS011;60220;53.552;10.092;2023-07-13T04:48:13;9.57;;;4.00;;
72284;SDS011;60220;53.552;10.092;2023-07-13T04:50:39;10.68;;;4.10;;
72284;SDS011;60220;53.552;10.092;2023-07-13T04:53:08;5.60;;;3.08;;
72284;SDS011;60220;53.552;10.092;2023-07-13T04:55:35;7.20;;;2.85;;
72284;SDS011;60220;53.552;10.092;2023-07-13T04:58:02;11.25;;;3.53;;
72284;SDS011;60220;53.552;10.092;2023-07-13T05:00:31;4.97;;;2.90;;
72284;SDS011;60220;53.552;10.092;2023-07-13T05:02:58;10.15;;;3.75;;
72284;SDS011;60220;53.552;10.092;2023-07-13T05:05:26;7.22;;;3.35;;
72284;SDS011;60220;53.552;10.092;2023-07-13T05:07:53;7.05;;;4.88;;
72284;SDS011;60220;53.552;10.092;2023-07-13T05:10:20;7.57;;;3.90;;
72284;SDS011;60220;53.552;10.092;2023-07-13T05:12:46;4.85;;;3.88;;
72284;SDS011;60220;53.552;10.092;2023-07-13T05:15:16;5.60;;;3.30;;
72284;SDS011;60220;53.552;10.092;2023-07-13T05:17:48;4.57;;;2.90;;
72284;SDS011;60220;53.552;10.092;2023-07-13T05:20:14;8.48;;;3.95;;
72284;SDS011;60220;53.552;10.092;2023-07-13T05:22:42;9.77;;;5.70;;
72284;SDS011;60220;53.552;10.092;2023-07-13T05:25:11;6.95;;;3.13;;
72284;SDS011;60220;53.552;10.092;2023-07-13T05:27:40;5.85;;;2.60;;
72284;SDS011;60220;53.552;10.092;2023-07-13T05:30:07;5.68;;;2.75;;
72284;SDS011;60220;53.552;10.092;2023-07-13T05:32:36;5.70;;;2.70;;
72284;SDS011;60220;53.552;10.092;2023-07-13T05:35:02;4.93;;;2.58;;
72284;SDS011;60220;53.552;10.092;2023-07-13T05:37:31;4.70;;;3.10;;
72284;SDS011;60220;53.552;10.092;2023-07-13T05:39:59;4.20;;;2.40;;
72284;SDS011;60220;53.552;10.092;2023-07-13T05:42:28;3.72;;;2.25;;
72284;SDS011;60220;53.552;10.092;2023-07-13T05:44:56;4.38;;;2.63;;
72284;SDS011;60220;53.552;10.092;2023-07-13T05:47:25;2.55;;;2.35;;
72284;SDS011;60220;53.552;10.092;2023-07-13T05:49:51;4.40;;;2.58;;
72284;SDS011;60220;53.552;10.092;2023-07-13T05:52:20;4.07;;;2.63;;
72284;SDS011;60220;53.552;10.092;2023-07-13T05:54:46;7.63;;;3.25;;
72284;SDS011;60220;53.552;10.092;2023-07-13T05:57:14;6.03;;;2.50;;
72284;SDS011;60220;53.552;10.092;2023-07-13T05:59:40;6.82;;;2.75;;
72284;SDS011;60220;53.552;10.092;2023-07-13T06:02:08;11.73;;;3.30;;
72284;SDS011;60220;53.552;10.092;2023-07-13T06:04:34;11.52;;;3.28;;
72284;SDS011;60220;53.552;10.092;2023-07-13T06:07:01;5.18;;;2.42;;
72284;SDS011;60220;53.552;10.092;2023-07-13T06:09:30;11.18;;;2.80;;
72284;SDS011;60220;53.552;10.092;2023-07-13T06:11:59;5.25;;;3.03;;
72284;SDS011;60220;53.552;10.092;2023-07-13T06:14:29;6.80;;;2.97;;
72284;SDS011;60220;53.552;10.092;2023-07-13T06:16:55;7.63;;;3.08;;
72284;SDS011;60220;53.552;10.092;2023-07-13T06:19:22;6.45;;;3.13;;
72284;SDS011;60220;53.552;10.092;2023-07-13T06:21:48;13.05;;;3.20;;
72284;SDS011;60220;53.552;10.092;2023-07-13T06:24:15;5.93;;;2.72;;
72284;SDS011;60220;53.552;10.092;2023-07-13T06:26:41;6.15;;;2.83;;
72284;SDS011;60220;53.552;10.092;2023-07-13T06:29:08;12.60;;;4.85;;
72284;SDS011;60220;53.552;10.092;2023-07-13T06:31:35;5.65;;;3.03;;
72284;SDS011;60220;53.552;10.092;2023-07-13T06:34:02;7.18;;;2.92;;
72284;SDS011;60220;53.552;10.092;2023-07-13T06:36:28;3.88;;;2.22;;
72284;SDS011;60220;53.552;10.092;2023-07-13T06:38:57;13.35;;;2.92;;
72284;SDS011;60220;53.552;10.092;2023-07-13T06:41:23;6.65;;;2.85;;
72284;SDS011;60220;53.552;10.092;2023-07-13T06:43:51;10.45;;;2.80;;
72284;SDS011;60220;53.552;10.092;2023-07-13T06:46:17;9.90;;;2.83;;
72284;SDS011;60220;53.552;10.092;2023-07-13T06:48:45;5.93;;;2.90;;
72284;SDS011;60220;53.552;10.092;2023-07-13T06:51:13;12.43;;;3.60;;
72284;SDS011;60220;53.552;10.092;2023-07-13T06:53:40;13.23;;;4.78;;
72284;SDS011;60220;53.552;10.092;2023-07-13T06:56:08;10.68;;;3.65;;
72284;SDS011;60220;53.552;10.092;2023-07-13T06:58:35;8.70;;;3.47;;
72284;SDS011;60220;53.552;10.092;2023-07-13T07:01:02;11.63;;;5.25;;
72284;SDS011;60220;53.552;10.092;2023-07-13T07:03:31;6.97;;;3.03;;
72284;SDS011;60220;53.552;10.092;2023-07-13T07:06:03;8.13;;;3.40;;
72284;SDS011;60220;53.552;10.092;2023-07-13T07:08:34;10.60;;;3.22;;
72284;SDS011;60220;53.552;10.092;2023-07-13T07:11:01;6.88;;;3.17;;
72284;SDS011;60220;53.552;10.092;2023-07-13T07:13:27;5.53;;;2.63;;
72284;SDS011;60220;53.552;10.092;2023-07-13T07:15:55;5.20;;;3.08;;
72284;SDS011;60220;53.552;10.092;2023-07-13T07:18:21;8.00;;;2.40;;
72284;SDS011;60220;53.552;10.092;2023-07-13T07:20:48;3.45;;;2.30;;
72284;SDS011;60220;53.552;10.092;2023-07-13T07:23:16;7.43;;;2.78;;
72284;SDS011;60220;53.552;10.092;2023-07-13T07:25:47;11.35;;;3.30;;
72284;SDS011;60220;53.552;10.092;2023-07-13T07:28:16;13.68;;;7.85;;
72284;SDS011;60220;53.552;10.092;2023-07-13T07:30:45;7.85;;;4.05;;
72284;SDS011;60220;53.552;10.092;2023-07-13T07:33:12;6.22;;;3.40;;
72284;SDS011;60220;53.552;10.092;2023-07-13T07:35:38;8.07;;;4.05;;
72284;SDS011;60220;53.552;10.092;2023-07-13T07:38:05;9.52;;;3.75;;
72284;SDS011;60220;53.552;10.092;2023-07-13T07:40:37;8.35;;;3.88;;
72284;SDS011;60220;53.552;10.092;2023-07-13T07:43:04;10.43;;;3.53;;
72284;SDS011;60220;53.552;10.092;2023-07-13T07:45:31;5.28;;;3.13;;
72284;SDS011;60220;53.552;10.092;2023-07-13T07:47:57;7.93;;;3.70;;
72284;SDS011;60220;53.552;10.092;2023-07-13T07:50:26;6.10;;;3.00;;
72284;SDS011;60220;53.552;10.092;2023-07-13T07:52:53;7.38;;;3.28;;
72284;SDS011;60220;53.552;10.092;2023-07-13T07:55:21;8.98;;;3.42;;
72284;SDS011;60220;53.552;10.092;2023-07-13T07:57:49;3.92;;;2.70;;
72284;SDS011;60220;53.552;10.092;2023-07-13T08:00:16;5.32;;;3.22;;
72284;SDS011;60220;53.552;10.092;2023-07-13T08:02:45;5.22;;;3.20;;
72284;SDS011;60220;53.552;10.092;2023-07-13T08:05:11;3.90;;;2.78;;
72284;SDS011;60220;53.552;10.092;2023-07-13T08:07:38;11.75;;;3.50;;
72284;SDS011;60220;53.552;10.092;2023-07-13T08:10:05;4.22;;;2.90;;
72284;SDS011;60220;53.552;10.092;2023-07-13T08:12:34;4.75;;;3.03;;
72284;SDS011;60220;53.552;10.092;2023-07-13T08:15:02;11.18;;;3.08;;
72284;SDS011;60220;53.552;10.092;2023-07-13T08:17:29;7.82;;;3.35;;
72284;SDS011;60220;53.552;10.092;2023-07-13T08:19:55;5.53;;;2.83;;
72284;SDS011;60220;53.552;10.092;2023-07-13T08:22:22;5.72;;;2.85;;
72284;SDS011;60220;53.552;10.092;2023-07-13T08:24:48;6.18;;;3.20;;
72284;SDS011;60220;53.552;10.092;2023-07-13T08:27:21;5.03;;;2.90;;
72284;SDS011;60220;53.552;10.092;2023-07-13T08:29:47;7.47;;;3.17;;
72284;SDS011;60220;53.552;10.092;2023-07-13T08:32:15;6.38;;;3.38;;
72284;SDS011;60220;53.552;10.092;2023-07-13T08:34:42;5.43;;;3.00;;
72284;SDS011;60220;53.552;10.092;2023-07-13T08:37:08;4.35;;;2.63;;
72284;SDS011;60220;53.552;10.092;2023-07-13T08:39:34;7.53;;;2.90;;
72284;SDS011;60220;53.552;10.092;2023-07-13T08:42:05;6.82;;;3.08;;
72284;SDS011;60220;53.552;10.092;2023-07-13T08:44:36;6.00;;;3.20;;
72284;SDS011;60220;53.552;10.092;2023-07-13T08:47:06;5.73;;;3.50;;
72284;SDS011;60220;53.552;10.092;2023-07-13T08:49:34;3.97;;;3.13;;
72284;SDS011;60220;53.552;10.092;2023-07-13T08:52:02;8.02;;;4.75;;
72284;SDS011;60220;53.552;10.092;2023-07-13T08:54:34;5.88;;;3.25;;
72284;SDS011;60220;53.552;10.092;2023-07-13T08:57:02;4.22;;;2.92;;
72284;SDS011;60220;53.552;10.092;2023-07-13T08:59:30;5.30;;;2.65;;
72284;SDS011;60220;53.552;10.092;2023-07-13T09:02:01;3.72;;;3.05;;
72284;SDS011;60220;53.552;10.092;2023-07-13T09:04:31;4.03;;;2.38;;
72284;SDS011;60220;53.552;10.092;2023-07-13T09:07:00;4.13;;;2.83;;
72284;SDS011;60220;53.552;10.092;2023-07-13T09:09:33;7.03;;;3.25;;
72284;SDS011;60220;53.552;10.092;2023-07-13T09:12:01;8.75;;;3.90;;
72284;SDS011;60220;53.552;10.092;2023-07-13T09:14:37;4.10;;;2.70;;
72284;SDS011;60220;53.552;10.092;2023-07-13T09:17:08;4.25;;;3.08;;
72284;SDS011;60220;53.552;10.092;2023-07-13T09:19:36;5.18;;;2.90;;
72284;SDS011;60220;53.552;10.092;2023-07-13T09:22:05;8.55;;;2.80;;
72284;SDS011;60220;53.552;10.092;2023-07-13T09:24:37;4.85;;;2.38;;
72284;SDS011;60220;53.552;10.092;2023-07-13T09:27:08;8.52;;;2.83;;
72284;SDS011;60220;53.552;10.092;2023-07-13T09:29:35;4.35;;;2.38;;
72284;SDS011;60220;53.552;10.092;2023-07-13T09:32:04;8.40;;;3.35;;
72284;SDS011;60220;53.552;10.092;2023-07-13T09:34:32;5.57;;;3.03;;
72284;SDS011;60220;53.552;10.092;2023-07-13T09:36:59;6.78;;;3.65;;
72284;SDS011;60220;53.552;10.092;2023-07-13T09:39:27;7.43;;;2.60;;
72284;SDS011;60220;53.552;10.092;2023-07-13T09:42:00;4.60;;;3.05;;
72284;SDS011;60220;53.552;10.092;2023-07-13T09:44:28;8.95;;;4.63;;
72284;SDS011;60220;53.552;10.092;2023-07-13T09:46:58;4.80;;;2.88;;
72284;SDS011;60220;53.552;10.092;2023-07-13T09:49:25;5.55;;;2.15;;
72284;SDS011;60220;53.552;10.092;2023-07-13T09:51:57;2.50;;;2.10;;
72284;SDS011;60220;53.552;10.092;2023-07-13T09:54:24;3.72;;;1.70;;
72284;SDS011;60220;53.552;10.092;2023-07-13T09:56:55;4.90;;;1.75;;
72284;SDS011;60220;53.552;10.092;2023-07-13T09:59:22;3.40;;;1.63;;
72284;SDS011;60220;53.552;10.092;2023-07-13T10:01:52;2.22;;;1.50;;
72284;SDS011;60220;53.552;10.092;2023-07-13T10:04:19;5.38;;;2.47;;
72284;SDS011;60220;53.552;10.092;2023-07-13T10:06:46;6.93;;;2.97;;
72284;SDS011;60220;53.552;10.092;2023-07-13T10:09:14;4.38;;;1.98;;
72284;SDS011;60220;53.552;10.092;2023-07-13T10:11:41;5.60;;;2.38;;
72284;SDS011;60220;53.552;10.092;2023-07-13T10:14:13;4.65;;;1.80;;
72284;SDS011;60220;53.552;10.092;2023-07-13T10:16:40;4.45;;;1.92;;
72284;SDS011;60220;53.552;10.092;2023-07-13T10:19:10;4.40;;;1.52;;
72284;SDS011;60220;53.552;10.092;2023-07-13T10:21:38;2.50;;;1.65;;
72284;SDS011;60220;53.552;10.092;2023-07-13T10:24:06;7.15;;;2.13;;
72284;SDS011;60220;53.552;10.092;2023-07-13T10:26:39;2.70;;;1.30;;
72284;SDS011;60220;53.552;10.092;2023-07-13T10:29:08;6.80;;;1.70;;
72284;SDS011;60220;53.552;10.092;2023-07-13T10:31:37;4.47;;;2.40;;
72284;SDS011;60220;53.552;10.092;2023-07-13T10:34:04;2.53;;;1.45;;
72284;SDS011;60220;53.552;10.092;2023-07-13T10:36:33;3.47;;;1.92;;
72284;SDS011;60220;53.552;10.092;2023-07-13T10:39:01;3.80;;;1.35;;
72284;SDS011;60220;53.552;10.092;2023-07-13T10:41:28;3.35;;;0.95;;
72284;SDS011;60220;53.552;10.092;2023-07-13T10:43:56;3.47;;;1.42;;
72284;SDS011;60220;53.552;10.092;2023-07-13T10:46:23;6.72;;;1.52;;
72284;SDS011;60220;53.552;10.092;2023-07-13T10:48:54;3.60;;;1.45;;
72284;SDS011;60220;53.552;10.092;2023-07-13T10:51:21;2.50;;;0.98;;
72284;SDS011;60220;53.552;10.092;2023-07-13T10:53:48;4.60;;;1.38;;
72284;SDS011;60220;53.552;10.092;2023-07-13T10:56:34;3.60;;;1.10;;
72284;SDS011;60220;53.552;10.092;2023-07-13T10:59:01;8.50;;;1.30;;
72284;SDS011;60220;53.552;10.092;2023-07-13T11:01:38;1.88;;;1.27;;
72284;SDS011;60220;53.552;10.092;2023-07-13T11:04:10;3.80;;;1.20;;
72284;SDS011;60220;53.552;10.092;2023-07-13T11:06:38;7.32;;;4.05;;
72284;SDS011;60220;53.552;10.092;2023-07-13T11:09:17;2.63;;;1.27;;
72284;SDS011;60220;53.552;10.092;2023-07-13T11:11:44;3.00;;;1.17;;
72284;SDS011;60220;53.552;10.092;2023-07-13T11:14:27;1.73;;;1.02;;
72284;SDS011;60220;53.552;10.092;2023-07-13T11:16:54;3.30;;;0.80;;
72284;SDS011;60220;53.552;10.092;2023-07-13T11:22:16;2.30;;;1.30;;
72284;SDS011;60220;53.552;10.092;2023-07-13T11:27:38;1.73;;;1.00;;
72284;SDS011;60220;53.552;10.092;2023-07-13T11:30:31;2.45;;;1.00;;
72284;SDS011;60220;53.552;10.092;2023-07-13T11:33:08;5.00;;;1.13;;
72284;SDS011;60220;53.552;10.092;2023-07-13T11:35:40;2.33;;;1.10;;
72284;SDS011;60220;53.552;10.092;2023-07-13T11:38:12;1.45;;;1.15;;
72284;SDS011;60220;53.552;10.092;2023-07-13T11:40:43;2.05;;;1.02;;
72284;SDS011;60220;53.552;10.092;2023-07-13T11:43:11;3.08;;;1.23;;
72284;SDS011;60220;53.552;10.092;2023-07-13T11:45:38;3.42;;;0.90;;
72284;SDS011;60220;53.552;10.092;2023-07-13T11:48:05;1.27;;;0.70;;
72284;SDS011;60220;53.552;10.092;2023-07-13T11:50:34;1.90;;;0.90;;
72284;SDS011;60220;53.552;10.092;2023-07-13T11:53:02;2.28;;;1.00;;
72284;SDS011;60220;53.552;10.092;2023-07-13T11:55:32;3.10;;;0.98;;
72284;SDS011;60220;53.552;10.092;2023-07-13T11:58:03;8.57;;;4.23;;
72284;SDS011;60220;53.552;10.092;2023-07-13T12:00:31;1.60;;;0.90;;
72284;SDS011;60220;53.552;10.092;2023-07-13T12:02:59;4.25;;;1.00;;
72284;SDS011;60220;53.552;10.092;2023-07-13T12:05:27;5.20;;;1.15;;
72284;SDS011;60220;53.552;10.092;2023-07-13T12:07:56;2.88;;;1.55;;
72284;SDS011;60220;53.552;10.092;2023-07-13T12:10:23;1.65;;;0.80;;
72284;SDS011;60220;53.552;10.092;2023-07-13T12:12:55;5.97;;;1.30;;
72284;SDS011;60220;53.552;10.092;2023-07-13T12:15:22;2.30;;;1.08;;
72284;SDS011;60220;53.552;10.092;2023-07-13T12:17:49;4.15;;;0.98;;
72284;SDS011;60220;53.552;10.092;2023-07-13T12:20:20;1.92;;;1.00;;
72284;SDS011;60220;53.552;10.092;2023-07-13T12:22:47;2.65;;;1.23;;
72284;SDS011;60220;53.552;10.092;2023-07-13T12:25:13;2.25;;;0.88;;
72284;SDS011;60220;53.552;10.092;2023-07-13T12:27:41;4.95;;;2.33;;
72284;SDS011;60220;53.552;10.092;2023-07-13T12:30:21;4.43;;;3.78;;
72284;SDS011;60220;53.552;10.092;2023-07-13T12:32:55;3.88;;;2.17;;
72284;SDS011;60220;53.552;10.092;2023-07-13T12:35:22;8.52;;;2.17;;
72284;SDS011;60220;53.552;10.092;2023-07-13T12:37:50;6.40;;;2.00;;
72284;SDS011;60220;53.552;10.092;2023-07-13T12:40:19;9.20;;;1.42;;
72284;SDS011;60220;53.552;10.092;2023-07-13T12:42:48;3.13;;;1.55;;
72284;SDS011;60220;53.552;10.092;2023-07-13T12:45:18;6.75;;;4.03;;
72284;SDS011;60220;53.552;10.092;2023-07-13T12:47:47;3.17;;;2.35;;
72284;SDS011;60220;53.552;10.092;2023-07-13T12:50:15;3.08;;;2.13;;
72284;SDS011;60220;53.552;10.092;2023-07-13T12:52:42;3.83;;;2.25;;
72284;SDS011;60220;53.552;10.092;2023-07-13T12:55:11;5.13;;;2.50;;
72284;SDS011;60220;53.552;10.092;2023-07-13T12:57:40;5.03;;;2.33;;
72284;SDS011;60220;53.552;10.092;2023-07-13T13:00:20;5.22;;;1.75;;
72284;SDS011;60220;53.552;10.092;2023-07-13T13:02:49;3.97;;;2.70;;
72284;SDS011;60220;53.552;10.092;2023-07-13T13:05:16;3.00;;;2.40;;
72284;SDS011;60220;53.552;10.092;2023-07-13T13:07:43;3.75;;;2.22;;
72284;SDS011;60220;53.552;10.092;2023-07-13T13:10:11;5.20;;;2.42;;
72284;SDS011;60220;53.552;10.092;2023-07-13T13:12:37;9.40;;;2.88;;
72284;SDS011;60220;53.552;10.092;2023-07-13T13:15:04;5.40;;;2.05;;
72284;SDS011;60220;53.552;10.092;2023-07-13T13:17:33;5.22;;;2.25;;
72284;SDS011;60220;53.552;10.092;2023-07-13T13:20:04;8.10;;;2.53;;
72284;SDS011;60220;53.552;10.092;2023-07-13T13:22:31;4.78;;;2.25;;
72284;SDS011;60220;53.552;10.092;2023-07-13T13:24:57;3.15;;;2.25;;
72284;SDS011;60220;53.552;10.092;2023-07-13T13:27:24;5.57;;;2.33;;
72284;SDS011;60220;53.552;10.092;2023-07-13T13:29:51;3.55;;;2.20;;
72284;SDS011;60220;53.552;10.092;2023-07-13T13:32:20;6.95;;;2.50;;
72284;SDS011;60220;53.552;10.092;2023-07-13T13:34:48;5.50;;;2.40;;
72284;SDS011;60220;53.552;10.092;2023-07-13T13:37:17;4.32;;;2.60;;
72284;SDS011;60220;53.552;10.092;2023-07-13T13:39:44;3.63;;;2.10;;
72284;SDS011;60220;53.552;10.092;2023-07-13T13:42:10;4.03;;;1.88;;
72284;SDS011;60220;53.552;10.092;2023-07-13T13:44:37;2.58;;;1.85;;
72284;SDS011;60220;53.552;10.092;2023-07-13T13:47:07;2.53;;;2.13;;
72284;SDS011;60220;53.552;10.092;2023-07-13T13:49:40;3.13;;;2.10;;
72284;SDS011;60220;53.552;10.092;2023-07-13T13:52:08;4.80;;;2.80;;
72284;SDS011;60220;53.552;10.092;2023-07-13T13:54:35;2.45;;;1.90;;
72284;SDS011;60220;53.552;10.092;2023-07-13T13:57:02;5.80;;;2.10;;
72284;SDS011;60220;53.552;10.092;2023-07-13T13:59:29;2.97;;;1.77;;
72284;SDS011;60220;53.552;10.092;2023-07-13T14:01:57;7.25;;;2.00;;
72284;SDS011;60220;53.552;10.092;2023-07-13T14:04:25;4.43;;;1.92;;
72284;SDS011;60220;53.552;10.092;2023-07-13T14:06:51;1.70;;;1.60;;
72284;SDS011;60220;53.552;10.092;2023-07-13T14:09:21;2.63;;;2.08;;
72284;SDS011;60220;53.552;10.092;2023-07-13T14:11:48;8.10;;;2.60;;
72284;SDS011;60220;53.552;10.092;2023-07-13T14:14:17;6.72;;;1.92;;
72284;SDS011;60220;53.552;10.092;2023-07-13T14:16:46;3.13;;;2.00;;
72284;SDS011;60220;53.552;10.092;2023-07-13T14:19:18;5.15;;;2.03;;
72284;SDS011;60220;53.552;10.092;2023-07-13T14:21:47;2.58;;;1.92;;
72284;SDS011;60220;53.552;10.092;2023-07-13T14:24:16;4.88;;;1.75;;
72284;SDS011;60220;53.552;10.092;2023-07-13T14:26:45;2.95;;;2.35;;
72284;SDS011;60220;53.552;10.092;2023-07-13T14:29:12;2.83;;;1.85;;
72284;SDS011;60220;53.552;10.092;2023-07-13T14:31:40;2.58;;;2.15;;
72284;SDS011;60220;53.552;10.092;2023-07-13T14:34:07;2.28;;;1.73;;
72284;SDS011;60220;53.552;10.092;2023-07-13T14:36:34;3.20;;;1.60;;
72284;SDS011;60220;53.552;10.092;2023-07-13T14:39:09;2.20;;;1.92;;
72284;SDS011;60220;53.552;10.092;2023-07-13T14:41:36;3.65;;;2.25;;
72284;SDS011;60220;53.552;10.092;2023-07-13T14:44:07;4.32;;;2.10;;